Time;durP1;ratioP1;P1;durP2;ratioP2;P2;SDS_P1;SDS_P2;PMS_P1;PMS_P2;Temp;Humidity;BMP_temperature;BMP_pressure;BME280_temperature;BME280_humidity;BME280_pressure;Samples;Min_cycle;Max_cycle;Signal;HPM_P1;HPM_P2
2022/12/12 00:00:30;;;;;;;0.57;0.57;;;;;;;;;;1853987;77;26216;-41
2022/12/12 00:02:57;;;;;;;0.60;0.60;;;;;;;;;;1858108;77;26192;-38
2022/12/12 00:05:25;;;;;;;0.62;0.62;;;;;;;;;;1855000;77;26633;-40
2022/12/12 00:07:52;;;;;;;0.53;0.53;;;;;;;;;;1855423;76;26217;-41
2022/12/12 00:10:19;;;;;;;0.53;0.53;;;;;;;;;;1851652;77;26203;-38
2022/12/12 00:12:47;;;;;;;0.78;0.78;;;;;;;;;;1852095;77;26258;-37
2022/12/12 00:15:14;;;;;;;1.37;0.50;;;;;;;;;;1856037;77;26840;-42
2022/12/12 00:17:41;;;;;;;0.60;0.60;;;;;;;;;;1857009;77;26171;-36
2022/12/12 00:20:08;;;;;;;0.40;0.40;;;;;;;;;;1857838;77;26215;-39
2022/12/12 00:22:36;;;;;;;0.40;0.40;;;;;;;;;;1859757;77;26159;-40
2022/12/12 00:25:03;;;;;;;0.57;0.57;;;;;;;;;;1857517;76;26660;-36
2022/12/12 00:27:31;;;;;;;0.50;0.50;;;;;;;;;;1855472;77;26199;-41
2022/12/12 00:29:58;;;;;;;1.55;0.60;;;;;;;;;;1850969;76;26252;-36
2022/12/12 00:32:26;;;;;;;0.50;0.50;;;;;;;;;;1855263;77;26209;-37
2022/12/12 00:34:53;;;;;;;0.50;0.50;;;;;;;;;;1852593;77;26209;-39
2022/12/12 00:37:20;;;;;;;0.70;0.70;;;;;;;;;;1855835;77;26229;-38
2022/12/12 00:39:48;;;;;;;0.50;0.50;;;;;;;;;;1854631;77;26151;-36
2022/12/12 00:42:15;;;;;;;0.50;0.50;;;;;;;;;;1863299;75;26707;-43
2022/12/12 00:44:43;;;;;;;0.50;0.50;;;;;;;;;;1866665;76;26620;-36
2022/12/12 00:47:10;;;;;;;0.70;0.70;;;;;;;;;;1863170;76;26163;-39
2022/12/12 00:49:37;;;;;;;0.60;0.50;;;;;;;;;;1865739;76;26198;-38
2022/12/12 00:52:04;;;;;;;0.60;0.60;;;;;;;;;;1864950;76;26179;-40
2022/12/12 00:54:32;;;;;;;0.50;0.50;;;;;;;;;;1867892;76;26163;-40
2022/12/12 00:56:59;;;;;;;0.47;0.47;;;;;;;;;;1864177;75;26628;-37
2022/12/12 00:59:26;;;;;;;0.42;0.42;;;;;;;;;;1864512;76;26179;-40
2022/12/12 01:01:53;;;;;;;0.60;0.60;;;;;;;;;;1863514;77;26552;-38
2022/12/12 01:04:21;;;;;;;0.40;0.40;;;;;;;;;;1862194;75;26206;-36
2022/12/12 01:06:48;;;;;;;0.75;0.45;;;;;;;;;;1865520;75;26616;-40
2022/12/12 01:09:15;;;;;;;0.50;0.50;;;;;;;;;;1867454;76;26785;-43
2022/12/12 01:11:42;;;;;;;0.50;0.50;;;;;;;;;;1864094;75;26667;-38
2022/12/12 01:14:10;;;;;;;0.40;0.40;;;;;;;;;;1864708;76;26725;-36
2022/12/12 01:16:37;;;;;;;0.65;0.60;;;;;;;;;;1866177;76;26230;-38
2022/12/12 01:19:04;;;;;;;0.90;0.60;;;;;;;;;;1864917;75;26225;-40
2022/12/12 01:21:31;;;;;;;0.60;0.60;;;;;;;;;;1862584;76;26210;-40
2022/12/12 01:24:00;;;;;;;1.00;0.60;;;;;;;;;;1867219;76;26160;-38
2022/12/12 01:26:27;;;;;;;0.40;0.40;;;;;;;;;;1867643;77;26159;-35
2022/12/12 01:28:55;;;;;;;0.60;0.60;;;;;;;;;;1866300;76;26269;-50
2022/12/12 01:31:22;;;;;;;0.50;0.50;;;;;;;;;;1858814;77;26155;-42
2022/12/12 01:33:50;;;;;;;0.40;0.40;;;;;;;;;;1865062;76;26238;-38
2022/12/12 01:36:18;;;;;;;0.50;0.50;;;;;;;;;;1861711;76;27309;-37
2022/12/12 01:38:46;;;;;;;0.50;0.50;;;;;;;;;;1860918;77;26288;-36
2022/12/12 01:41:14;;;;;;;0.50;0.50;;;;;;;;;;1868271;77;26155;-38
2022/12/12 01:43:41;;;;;;;0.60;0.60;;;;;;;;;;1872056;76;26233;-41
2022/12/12 01:46:22;;;;;;;0.57;0.57;;;;;;;;;;1871665;76;26691;-48
2022/12/12 01:48:51;;;;;;;0.60;0.60;;;;;;;;;;1874131;76;26768;-42
2022/12/12 01:51:20;;;;;;;0.55;0.55;;;;;;;;;;1872040;76;26580;-40
2022/12/12 01:53:48;;;;;;;0.40;0.40;;;;;;;;;;1873259;76;26213;-36
2022/12/12 01:56:17;;;;;;;0.60;0.60;;;;;;;;;;1874413;76;26253;-39
2022/12/12 01:58:46;;;;;;;0.55;0.55;;;;;;;;;;1874421;76;26725;-43
2022/12/12 02:01:14;;;;;;;0.40;0.40;;;;;;;;;;1871867;76;26163;-43
2022/12/12 02:03:41;;;;;;;0.40;0.40;;;;;;;;;;1872959;76;26186;-40
2022/12/12 02:06:10;;;;;;;0.50;0.50;;;;;;;;;;1875455;75;26217;-38
2022/12/12 02:08:38;;;;;;;0.50;0.50;;;;;;;;;;1873016;76;26717;-38
2022/12/12 02:11:06;;;;;;;0.40;0.40;;;;;;;;;;1874429;76;26225;-40
2022/12/12 02:13:33;;;;;;;0.53;0.53;;;;;;;;;;1872760;76;26217;-37
2022/12/12 02:16:11;;;;;;;0.35;0.35;;;;;;;;;;1874446;76;26597;-37
2022/12/12 02:18:40;;;;;;;0.60;0.60;;;;;;;;;;1872030;75;26171;-40
2022/12/12 02:21:24;;;;;;;0.47;0.47;;;;;;;;;;1870256;76;26752;-40
2022/12/12 02:24:04;;;;;;;0.40;0.40;;;;;;;;;;1870290;76;26259;-42
2022/12/12 02:26:49;;;;;;;0.50;0.50;;;;;;;;;;1869926;76;26279;-37
2022/12/12 02:29:35;;;;;;;0.60;0.60;;;;;;;;;;1873546;76;26163;-38
2022/12/12 02:32:06;;;;;;;0.50;0.50;;;;;;;;;;1875169;76;26521;-37
2022/12/12 02:34:41;;;;;;;0.75;0.50;;;;;;;;;;1869537;76;26832;-42
2022/12/12 02:37:12;;;;;;;0.53;0.53;;;;;;;;;;1872698;76;26164;-35
2022/12/12 02:39:41;;;;;;;0.40;0.40;;;;;;;;;;1874114;76;26593;-43
2022/12/12 02:42:10;;;;;;;0.57;0.57;;;;;;;;;;1870999;76;26586;-42
2022/12/12 02:44:45;;;;;;;0.60;0.60;;;;;;;;;;1870026;76;26346;-36
2022/12/12 02:47:13;;;;;;;0.45;0.45;;;;;;;;;;1870064;76;26224;-38
2022/12/12 02:49:42;;;;;;;0.60;0.60;;;;;;;;;;1869708;76;26237;-39
2022/12/12 02:52:10;;;;;;;0.57;0.57;;;;;;;;;;1873729;76;26148;-36
2022/12/12 02:54:38;;;;;;;0.50;0.50;;;;;;;;;;1874909;76;26220;-36
2022/12/12 02:57:07;;;;;;;0.40;0.40;;;;;;;;;;1869618;75;26273;-40
2022/12/12 02:59:35;;;;;;;0.40;0.40;;;;;;;;;;1869884;76;26643;-42
2022/12/12 03:02:20;;;;;;;0.60;0.60;;;;;;;;;;1871779;76;26641;-39
2022/12/12 03:07:47;;;;;;;1.07;0.60;;;;;;;;;;1873053;75;26753;-41
2022/12/12 03:10:22;;;;;;;0.55;0.55;;;;;;;;;;1872201;76;26163;-41
2022/12/12 03:12:59;;;;;;;0.50;0.50;;;;;;;;;;1824248;76;26240;-41
2022/12/12 03:15:37;;;;;;;0.50;0.50;;;;;;;;;;1872956;76;26279;-36
2022/12/12 03:18:08;;;;;;;0.60;0.60;;;;;;;;;;1874025;75;26236;-39
2022/12/12 03:20:46;;;;;;;0.40;0.40;;;;;;;;;;1813095;76;26748;-39
2022/12/12 03:23:14;;;;;;;0.70;0.70;;;;;;;;;;1874585;76;26644;-36
2022/12/12 03:25:49;;;;;;;0.53;0.53;;;;;;;;;;1874299;76;26205;-44
2022/12/12 03:28:33;;;;;;;0.60;0.60;;;;;;;;;;1872532;76;26198;-38
2022/12/12 03:31:02;;;;;;;0.60;0.60;;;;;;;;;;1874880;76;26147;-37
2022/12/12 03:33:33;;;;;;;0.57;0.57;;;;;;;;;;1874616;76;26176;-43
2022/12/12 03:36:02;;;;;;;0.60;0.60;;;;;;;;;;1868225;76;26626;-44
2022/12/12 03:38:31;;;;;;;0.60;0.60;;;;;;;;;;1872469;76;26214;-37
2022/12/12 03:41:00;;;;;;;0.62;0.62;;;;;;;;;;1869571;76;26175;-38
2022/12/12 03:43:31;;;;;;;0.70;0.70;;;;;;;;;;1874164;76;26648;-38
2022/12/12 03:46:03;;;;;;;0.50;0.50;;;;;;;;;;1866088;76;26625;-37
2022/12/12 03:48:31;;;;;;;0.70;0.70;;;;;;;;;;1871079;76;26206;-38
2022/12/12 03:50:59;;;;;;;0.60;0.60;;;;;;;;;;1870216;76;26183;-42
2022/12/12 03:53:28;;;;;;;1.95;0.80;;;;;;;;;;1871398;76;26225;-36
2022/12/12 03:55:57;;;;;;;0.80;0.80;;;;;;;;;;1867929;76;26654;-38
2022/12/12 03:58:38;;;;;;;0.90;0.90;;;;;;;;;;1875124;76;26820;-38
2022/12/12 04:01:07;;;;;;;0.80;0.80;;;;;;;;;;1869062;76;26776;-42
2022/12/12 04:03:42;;;;;;;0.93;0.93;;;;;;;;;;1875283;76;26327;-39
2022/12/12 04:06:28;;;;;;;1.30;1.00;;;;;;;;;;1877399;75;26139;-38
2022/12/12 04:14:33;;;;;;;1.75;1.42;;;;;;;;;;1868974;76;26269;-40
2022/12/12 04:17:02;;;;;;;5.12;2.22;;;;;;;;;;1869556;76;26621;-36
2022/12/12 04:25:13;;;;;;;10.15;4.40;;;;;;;;;;1869748;76;26646;-45
2022/12/12 04:27:42;;;;;;;8.85;5.37;;;;;;;;;;1866056;76;26592;-54
2022/12/12 04:30:10;;;;;;;13.90;5.80;;;;;;;;;;1872997;76;26221;-39
2022/12/12 04:32:39;;;;;;;13.08;6.28;;;;;;;;;;1865779;76;26210;-40
2022/12/12 04:35:08;;;;;;;15.53;6.62;;;;;;;;;;1871609;76;26210;-40
2022/12/12 04:37:37;;;;;;;17.25;6.78;;;;;;;;;;1874755;76;26183;-39
2022/12/12 04:40:06;;;;;;;13.75;6.58;;;;;;;;;;1870608;76;26206;-36
2022/12/12 04:42:34;;;;;;;15.45;6.40;;;;;;;;;;1873271;76;26264;-38
2022/12/12 04:45:06;;;;;;;15.85;6.80;;;;;;;;;;1854155;76;26691;-39
2022/12/12 04:47:34;;;;;;;13.83;6.22;;;;;;;;;;1853951;77;26331;-38
2022/12/12 04:50:02;;;;;;;12.23;6.35;;;;;;;;;;1845967;77;26286;-43
2022/12/12 04:52:30;;;;;;;15.13;6.40;;;;;;;;;;1855896;77;26159;-36
2022/12/12 04:54:59;;;;;;;14.95;5.87;;;;;;;;;;1843032;77;26283;-46
2022/12/12 04:57:28;;;;;;;10.85;5.87;;;;;;;;;;1846012;76;26334;-41
2022/12/12 04:59:56;;;;;;;15.18;6.22;;;;;;;;;;1855991;77;26330;-44
2022/12/12 05:02:33;;;;;;;11.38;5.17;;;;;;;;;;1859359;77;26163;-36
2022/12/12 05:05:05;;;;;;;10.70;5.33;;;;;;;;;;1852949;77;26246;-44
2022/12/12 05:07:46;;;;;;;10.55;5.20;;;;;;;;;;1848946;77;26180;-41
2022/12/12 05:10:14;;;;;;;10.90;5.03;;;;;;;;;;1851874;77;26292;-40
2022/12/12 05:12:43;;;;;;;9.68;4.90;;;;;;;;;;1858569;77;26300;-41
2022/12/12 05:15:10;;;;;;;8.13;4.42;;;;;;;;;;1855041;77;26607;-38
2022/12/12 05:17:39;;;;;;;7.25;3.95;;;;;;;;;;1844548;77;26291;-39
2022/12/12 05:20:07;;;;;;;7.85;3.87;;;;;;;;;;1852255;77;26167;-39
2022/12/12 05:22:34;;;;;;;7.87;3.70;;;;;;;;;;1857546;77;26675;-39
2022/12/12 05:25:02;;;;;;;7.83;3.40;;;;;;;;;;1855682;77;26264;-42
2022/12/12 05:27:29;;;;;;;5.30;3.30;;;;;;;;;;1859408;77;26513;-47
2022/12/12 05:29:57;;;;;;;5.97;3.58;;;;;;;;;;1853617;77;26698;-40
2022/12/12 05:32:24;;;;;;;4.50;3.00;;;;;;;;;;1857599;77;27066;-38
2022/12/12 05:34:51;;;;;;;3.27;2.83;;;;;;;;;;1856149;77;26941;-40
2022/12/12 05:37:18;;;;;;;6.25;2.92;;;;;;;;;;1858090;77;26577;-38
2022/12/12 05:39:46;;;;;;;4.67;2.60;;;;;;;;;;1843201;77;26248;-37
2022/12/12 05:42:13;;;;;;;3.33;2.98;;;;;;;;;;1850715;77;26233;-39
2022/12/12 05:44:40;;;;;;;4.50;3.17;;;;;;;;;;1856734;76;26372;-39
2022/12/12 05:47:08;;;;;;;7.72;3.27;;;;;;;;;;1869816;76;26291;-43
2022/12/12 05:49:35;;;;;;;8.40;3.30;;;;;;;;;;1871654;76;26698;-46
2022/12/12 05:52:02;;;;;;;6.40;4.15;;;;;;;;;;1871139;76;26275;-39
2022/12/12 05:54:30;;;;;;;10.50;4.00;;;;;;;;;;1872112;76;26184;-42
2022/12/12 05:56:57;;;;;;;9.48;4.15;;;;;;;;;;1873237;76;26298;-42
2022/12/12 05:59:24;;;;;;;9.75;4.30;;;;;;;;;;1867121;75;26233;-38
2022/12/12 06:01:52;;;;;;;11.45;4.87;;;;;;;;;;1871683;76;26275;-36
2022/12/12 06:04:19;;;;;;;11.38;5.45;;;;;;;;;;1870991;75;26635;-38
2022/12/12 06:06:46;;;;;;;12.00;4.95;;;;;;;;;;1865847;76;26581;-38
2022/12/12 06:09:14;;;;;;;10.10;5.08;;;;;;;;;;1868856;76;26257;-44
2022/12/12 06:11:41;;;;;;;14.45;4.72;;;;;;;;;;1874143;76;26187;-36
2022/12/12 06:14:09;;;;;;;12.60;5.62;;;;;;;;;;1882781;75;27023;-41
2022/12/12 06:16:36;;;;;;;10.40;5.20;;;;;;;;;;1873060;76;26652;-40
2022/12/12 06:19:03;;;;;;;10.88;5.28;;;;;;;;;;1871615;76;26662;-40
2022/12/12 06:21:31;;;;;;;10.13;5.00;;;;;;;;;;1874191;76;26157;-37
2022/12/12 06:23:58;;;;;;;8.70;4.45;;;;;;;;;;1860383;76;26222;-36
2022/12/12 06:26:25;;;;;;;11.70;5.37;;;;;;;;;;1870734;76;26159;-38
2022/12/12 06:28:52;;;;;;;8.80;4.58;;;;;;;;;;1870418;75;26183;-37
2022/12/12 06:31:20;;;;;;;7.97;4.08;;;;;;;;;;1872466;75;26136;-39
2022/12/12 06:33:47;;;;;;;11.48;4.10;;;;;;;;;;1871106;76;26199;-40
2022/12/12 06:36:18;;;;;;;6.70;3.92;;;;;;;;;;1872337;76;26206;-42
2022/12/12 06:38:44;;;;;;;5.42;3.90;;;;;;;;;;1873542;76;26190;-41
2022/12/12 06:41:13;;;;;;;7.47;4.22;;;;;;;;;;1870746;76;26175;-40
2022/12/12 06:43:41;;;;;;;9.75;3.80;;;;;;;;;;1871555;76;26662;-40
2022/12/12 06:46:09;;;;;;;7.12;3.87;;;;;;;;;;1862701;75;26206;-38
2022/12/12 06:48:37;;;;;;;7.58;3.83;;;;;;;;;;1860731;76;26222;-41
2022/12/12 06:51:08;;;;;;;6.92;3.30;;;;;;;;;;1859500;76;26228;-43
2022/12/12 06:53:35;;;;;;;5.37;3.15;;;;;;;;;;1862562;76;26194;-37
2022/12/12 06:56:07;;;;;;;6.37;3.37;;;;;;;;;;1862671;76;26192;-40
2022/12/12 06:58:34;;;;;;;5.97;2.92;;;;;;;;;;1863244;75;26637;-43
2022/12/12 07:01:01;;;;;;;5.17;3.00;;;;;;;;;;1861724;76;26707;-43
2022/12/12 07:03:28;;;;;;;5.83;2.87;;;;;;;;;;1861110;76;26457;-42
2022/12/12 07:05:56;;;;;;;4.70;2.75;;;;;;;;;;1859944;76;26221;-40
2022/12/12 07:08:23;;;;;;;3.08;2.25;;;;;;;;;;1861423;76;26248;-42
2022/12/12 07:10:50;;;;;;;4.97;2.67;;;;;;;;;;1861073;76;26293;-43
2022/12/12 07:13:18;;;;;;;3.60;2.35;;;;;;;;;;1861664;76;26207;-45
2022/12/12 07:15:46;;;;;;;3.25;2.20;;;;;;;;;;1859408;76;26202;-37
2022/12/12 07:18:13;;;;;;;2.08;1.98;;;;;;;;;;1865002;76;26249;-42
2022/12/12 07:20:41;;;;;;;2.80;2.00;;;;;;;;;;1862030;76;26179;-41
2022/12/12 07:23:09;;;;;;;2.12;1.92;;;;;;;;;;1859482;76;26233;-37
2022/12/12 07:25:37;;;;;;;3.50;2.10;;;;;;;;;;1858669;76;27130;-38
2022/12/12 07:28:05;;;;;;;2.45;1.80;;;;;;;;;;1863455;76;26627;-36
2022/12/12 07:30:32;;;;;;;3.08;2.00;;;;;;;;;;1862795;76;26201;-42
2022/12/12 07:32:59;;;;;;;1.75;1.50;;;;;;;;;;1865192;75;26171;-36
2022/12/12 07:35:27;;;;;;;2.85;1.70;;;;;;;;;;1860424;75;26210;-39
2022/12/12 07:37:55;;;;;;;3.92;1.80;;;;;;;;;;1865598;75;26229;-38
2022/12/12 07:40:23;;;;;;;4.53;1.32;;;;;;;;;;1865709;75;26253;-35
2022/12/12 07:42:50;;;;;;;1.35;1.25;;;;;;;;;;1864829;75;26161;-36
2022/12/12 07:45:18;;;;;;;2.12;1.32;;;;;;;;;;1848656;76;26272;-35
2022/12/12 07:47:45;;;;;;;1.70;1.30;;;;;;;;;;1864374;76;26216;-38
2022/12/12 07:50:13;;;;;;;1.17;1.10;;;;;;;;;;1865921;76;26608;-38
2022/12/12 07:52:40;;;;;;;1.35;1.30;;;;;;;;;;1867651;76;26202;-42
2022/12/12 07:55:07;;;;;;;2.02;1.10;;;;;;;;;;1866349;75;26246;-40
2022/12/12 07:57:35;;;;;;;2.02;1.30;;;;;;;;;;1857298;75;28155;-38
2022/12/12 08:00:03;;;;;;;1.07;1.07;;;;;;;;;;1863502;76;26245;-46
2022/12/12 08:02:30;;;;;;;1.17;1.17;;;;;;;;;;1861822;75;26717;-44
2022/12/12 08:04:57;;;;;;;1.42;1.30;;;;;;;;;;1866951;76;26923;-42
2022/12/12 08:07:25;;;;;;;1.27;1.27;;;;;;;;;;1855812;75;26737;-38
2022/12/12 08:09:52;;;;;;;0.95;0.95;;;;;;;;;;1864817;76;26218;-43
2022/12/12 08:12:20;;;;;;;1.50;1.20;;;;;;;;;;1865314;75;26226;-44
2022/12/12 08:14:47;;;;;;;1.20;1.20;;;;;;;;;;1866051;75;26171;-39
2022/12/12 08:17:15;;;;;;;3.50;1.30;;;;;;;;;;1861316;76;26718;-43
2022/12/12 08:19:42;;;;;;;1.95;1.12;;;;;;;;;;1862412;76;26679;-41
2022/12/12 08:22:09;;;;;;;1.25;1.17;;;;;;;;;;1859964;75;26213;-49
2022/12/12 08:24:36;;;;;;;1.30;1.20;;;;;;;;;;1862944;76;26248;-44
2022/12/12 08:27:04;;;;;;;2.12;0.95;;;;;;;;;;1866239;76;26199;-39
2022/12/12 08:29:31;;;;;;;2.17;1.10;;;;;;;;;;1865476;76;26214;-43
2022/12/12 08:31:58;;;;;;;4.40;1.00;;;;;;;;;;1864020;76;26292;-37
2022/12/12 08:34:25;;;;;;;1.00;1.00;;;;;;;;;;1862510;76;26218;-37
2022/12/12 08:36:53;;;;;;;1.15;1.00;;;;;;;;;;1866568;76;26174;-50
2022/12/12 08:39:21;;;;;;;1.55;1.02;;;;;;;;;;1863908;76;26686;-40
2022/12/12 08:41:49;;;;;;;1.95;1.00;;;;;;;;;;1866233;76;26225;-43
2022/12/12 08:44:17;;;;;;;2.08;0.90;;;;;;;;;;1865659;76;27014;-42
2022/12/12 08:46:45;;;;;;;1.47;1.17;;;;;;;;;;1855496;76;26208;-43
2022/12/12 08:49:12;;;;;;;1.35;0.93;;;;;;;;;;1848888;77;26175;-46
2022/12/12 08:51:40;;;;;;;2.00;0.93;;;;;;;;;;1844260;76;26170;-43
2022/12/12 08:54:07;;;;;;;0.90;0.90;;;;;;;;;;1849864;77;26171;-39
2022/12/12 08:56:35;;;;;;;2.15;1.10;;;;;;;;;;1849155;77;26159;-42
2022/12/12 08:59:02;;;;;;;1.00;1.00;;;;;;;;;;1840698;76;26128;-40
2022/12/12 09:01:29;;;;;;;3.37;1.00;;;;;;;;;;1843715;77;26167;-38
2022/12/12 09:03:57;;;;;;;22.35;1.30;;;;;;;;;;1841201;77;26211;-38
2022/12/12 09:06:24;;;;;;;2.98;0.90;;;;;;;;;;1844137;77;26159;-39
2022/12/12 09:08:52;;;;;;;1.50;1.00;;;;;;;;;;1834317;77;26202;-37
2022/12/12 09:11:19;;;;;;;1.02;0.93;;;;;;;;;;1843660;77;26648;-44
2022/12/12 09:13:46;;;;;;;0.82;0.82;;;;;;;;;;1850425;77;26160;-43
2022/12/12 09:16:14;;;;;;;3.17;1.00;;;;;;;;;;1842597;77;26646;-39
2022/12/12 09:18:41;;;;;;;1.90;1.00;;;;;;;;;;1849244;77;26629;-38
2022/12/12 09:21:08;;;;;;;1.90;1.10;;;;;;;;;;1847595;77;26163;-37
2022/12/12 09:23:36;;;;;;;0.90;0.90;;;;;;;;;;1847141;77;26175;-42
2022/12/12 09:26:04;;;;;;;1.05;0.98;;;;;;;;;;1845148;77;26152;-41
2022/12/12 09:28:32;;;;;;;0.80;0.80;;;;;;;;;;1849028;77;26714;-36
2022/12/12 09:30:59;;;;;;;2.10;0.93;;;;;;;;;;1841877;77;25181;-40
2022/12/12 09:33:27;;;;;;;0.80;0.80;;;;;;;;;;1848623;77;26254;-45
2022/12/12 09:36:01;;;;;;;1.20;0.90;;;;;;;;;;1841457;77;26174;-42
2022/12/12 09:38:28;;;;;;;1.00;1.00;;;;;;;;;;1848100;77;26160;-42
2022/12/12 09:40:59;;;;;;;0.98;0.98;;;;;;;;;;1847787;77;26156;-38
2022/12/12 09:43:28;;;;;;;2.30;0.90;;;;;;;;;;1846750;77;26288;-46
2022/12/12 09:45:55;;;;;;;0.90;0.90;;;;;;;;;;1850714;76;25911;-45
2022/12/12 09:48:27;;;;;;;0.80;0.80;;;;;;;;;;1872488;76;26207;-46
2022/12/12 09:50:54;;;;;;;0.88;0.82;;;;;;;;;;1866992;76;26241;-41
2022/12/12 09:53:22;;;;;;;0.80;0.68;;;;;;;;;;1871548;76;26233;-38
2022/12/12 09:55:51;;;;;;;0.90;0.90;;;;;;;;;;1869658;76;26585;-38
2022/12/12 09:58:22;;;;;;;6.40;0.90;;;;;;;;;;1873008;75;26794;-41
2022/12/12 10:00:54;;;;;;;0.70;0.70;;;;;;;;;;1867382;75;26205;-41
2022/12/12 10:03:39;;;;;;;1.62;1.00;;;;;;;;;;1863517;76;28509;-39
2022/12/12 10:06:08;;;;;;;1.20;0.97;;;;;;;;;;1855149;75;28146;-40
2022/12/12 10:08:40;;;;;;;1.67;0.85;;;;;;;;;;1872163;76;26273;-41
2022/12/12 10:11:48;;;;;;;0.85;0.85;;;;;;;;;;1861699;75;27734;-38
2022/12/12 10:13:38;;;;;;;2.40;0.90;;;;;;;;;;1866092;76;26584;-43
2022/12/12 10:16:07;;;;;;;0.90;0.90;;;;;;;;;;1871143;76;26285;-37
2022/12/12 10:18:42;;;;;;;0.80;0.80;;;;;;;;;;1868360;76;26162;-40
2022/12/12 10:21:11;;;;;;;0.90;0.90;;;;;;;;;;1867187;76;26273;-40
2022/12/12 10:23:52;;;;;;;1.32;0.90;;;;;;;;;;1872070;76;26171;-38
2022/12/12 10:26:29;;;;;;;1.75;0.90;;;;;;;;;;1873014;75;26237;-40
2022/12/12 10:28:58;;;;;;;0.82;0.82;;;;;;;;;;1865209;75;26183;-40
2022/12/12 10:31:45;;;;;;;0.82;0.82;;;;;;;;;;1858946;76;26240;-39
2022/12/12 10:34:25;;;;;;;1.15;0.80;;;;;;;;;;1865175;76;26573;-46
2022/12/12 10:36:54;;;;;;;0.80;0.80;;;;;;;;;;1873933;75;26553;-45
2022/12/12 10:39:23;;;;;;;1.22;1.10;;;;;;;;;;1868229;76;26729;-39
2022/12/12 10:41:52;;;;;;;0.90;0.90;;;;;;;;;;1873425;76;26187;-42
2022/12/12 10:44:20;;;;;;;0.60;0.60;;;;;;;;;;1871017;75;26269;-44
2022/12/12 10:46:49;;;;;;;0.93;0.88;;;;;;;;;;1870668;75;26211;-38
2022/12/12 10:49:18;;;;;;;0.80;0.80;;;;;;;;;;1860583;76;26223;-42
2022/12/12 10:51:47;;;;;;;0.80;0.80;;;;;;;;;;1863757;76;26229;-37
2022/12/12 10:54:16;;;;;;;0.90;0.90;;;;;;;;;;1861640;76;26223;-38
2022/12/12 10:56:54;;;;;;;0.80;0.80;;;;;;;;;;1861633;75;26159;-38
2022/12/12 10:59:22;;;;;;;0.80;0.80;;;;;;;;;;1813984;75;26211;-41
2022/12/12 11:01:50;;;;;;;0.85;0.85;;;;;;;;;;1864386;77;26745;-39
2022/12/12 11:04:18;;;;;;;1.57;0.88;;;;;;;;;;1858022;75;26711;-36
2022/12/12 11:06:47;;;;;;;3.22;0.95;;;;;;;;;;1869619;75;26196;-41
2022/12/12 11:09:16;;;;;;;1.22;1.15;;;;;;;;;;1855899;76;26254;-40
2022/12/12 11:11:44;;;;;;;1.05;0.90;;;;;;;;;;1861365;75;26209;-39
2022/12/12 11:14:22;;;;;;;1.00;0.90;;;;;;;;;;1858018;75;26277;-54
2022/12/12 11:16:49;;;;;;;1.75;1.00;;;;;;;;;;1861792;77;26665;-43
2022/12/12 11:19:18;;;;;;;1.00;1.00;;;;;;;;;;1850398;77;28604;-35
2022/12/12 11:21:46;;;;;;;2.30;0.90;;;;;;;;;;1857022;77;26241;-40
2022/12/12 11:24:15;;;;;;;0.90;0.90;;;;;;;;;;1859630;76;26194;-44
2022/12/12 11:26:43;;;;;;;0.93;0.90;;;;;;;;;;1854602;76;26262;-43
2022/12/12 11:29:12;;;;;;;1.32;1.00;;;;;;;;;;1862780;76;26184;-39
2022/12/12 11:31:41;;;;;;;1.80;0.90;;;;;;;;;;1855142;77;26616;-41
2022/12/12 11:34:10;;;;;;;1.65;1.00;;;;;;;;;;1861403;76;26222;-38
2022/12/12 11:36:38;;;;;;;0.90;0.90;;;;;;;;;;1861409;77;26207;-40
2022/12/12 11:39:22;;;;;;;1.02;1.02;;;;;;;;;;1858014;77;26222;-39
2022/12/12 11:42:06;;;;;;;0.80;0.80;;;;;;;;;;1859126;77;26309;-46
2022/12/12 11:44:37;;;;;;;0.95;0.95;;;;;;;;;;1791705;79;26715;-40
2022/12/12 11:47:14;;;;;;;0.80;0.80;;;;;;;;;;1838120;76;26223;-40
2022/12/12 11:49:46;;;;;;;0.80;0.80;;;;;;;;;;1868969;75;26729;-47
2022/12/12 11:52:17;;;;;;;1.00;1.00;;;;;;;;;;1873057;76;26277;-48
2022/12/12 11:54:45;;;;;;;0.90;0.90;;;;;;;;;;1871711;76;26203;-38
2022/12/12 11:57:13;;;;;;;1.00;1.00;;;;;;;;;;1872561;76;26819;-45
2022/12/12 11:59:48;;;;;;;0.90;0.90;;;;;;;;;;1871124;75;26628;-40
2022/12/12 12:02:17;;;;;;;1.82;0.98;;;;;;;;;;1865299;76;26771;-44
2022/12/12 12:04:49;;;;;;;1.12;1.12;;;;;;;;;;1871685;76;26651;-44
2022/12/12 12:07:17;;;;;;;1.65;1.15;;;;;;;;;;1871911;75;26123;-46
2022/12/12 12:09:58;;;;;;;1.07;0.98;;;;;;;;;;1867629;75;26233;-40
2022/12/12 12:12:27;;;;;;;1.22;0.90;;;;;;;;;;1868790;76;26557;-41
2022/12/12 12:15:08;;;;;;;0.85;0.85;;;;;;;;;;1870368;76;26172;-42
2022/12/12 12:17:45;;;;;;;0.90;0.90;;;;;;;;;;1871504;76;26732;-41
2022/12/12 12:20:14;;;;;;;1.02;1.00;;;;;;;;;;1870101;75;26205;-41
2022/12/12 12:22:55;;;;;;;1.42;0.90;;;;;;;;;;1871789;76;26548;-38
2022/12/12 12:25:40;;;;;;;0.90;0.90;;;;;;;;;;1871151;76;26486;-38
2022/12/12 12:28:18;;;;;;;0.80;0.80;;;;;;;;;;1871455;76;26998;-37
2022/12/12 12:31:02;;;;;;;0.93;0.93;;;;;;;;;;1869246;76;26278;-40
2022/12/12 12:33:47;;;;;;;0.90;0.90;;;;;;;;;;1868315;76;26167;-38
2022/12/12 12:36:15;;;;;;;0.93;0.90;;;;;;;;;;1871640;76;26699;-42
2022/12/12 12:38:47;;;;;;;1.00;0.90;;;;;;;;;;1872371;76;26676;-37
2022/12/12 12:41:19;;;;;;;0.80;0.80;;;;;;;;;;1870435;75;26204;-42
2022/12/12 12:43:57;;;;;;;0.98;0.98;;;;;;;;;;1868334;76;26152;-45
2022/12/12 12:46:26;;;;;;;0.90;0.90;;;;;;;;;;1838969;76;26187;-41
2022/12/12 12:48:54;;;;;;;0.80;0.80;;;;;;;;;;1830575;76;26319;-39
2022/12/12 12:51:33;;;;;;;1.00;1.00;;;;;;;;;;1869083;75;26152;-37
2022/12/12 12:54:13;;;;;;;0.90;0.90;;;;;;;;;;1873726;76;26332;-36
2022/12/12 12:56:45;;;;;;;0.93;0.93;;;;;;;;;;1871882;76;26238;-41
2022/12/12 12:59:14;;;;;;;1.67;1.00;;;;;;;;;;1868372;75;26842;-43
2022/12/12 13:01:43;;;;;;;2.15;1.00;;;;;;;;;;1870281;76;26261;-35
2022/12/12 13:04:12;;;;;;;0.88;0.88;;;;;;;;;;1869993;75;26265;-37
2022/12/12 13:06:57;;;;;;;2.62;0.90;;;;;;;;;;1869992;76;26264;-45
2022/12/12 13:09:32;;;;;;;1.25;1.00;;;;;;;;;;1873227;76;26194;-39
2022/12/12 13:12:01;;;;;;;1.22;1.10;;;;;;;;;;1851702;76;38215;-49
2022/12/12 13:14:30;;;;;;;0.90;0.90;;;;;;;;;;1871007;76;26655;-38
2022/12/12 13:16:59;;;;;;;6.75;0.98;;;;;;;;;;1870111;76;26545;-35
2022/12/12 13:19:28;;;;;;;0.95;0.95;;;;;;;;;;1856027;76;28760;-39
2022/12/12 13:21:56;;;;;;;1.15;1.15;;;;;;;;;;1871647;75;26207;-36
2022/12/12 13:24:40;;;;;;;1.25;1.20;;;;;;;;;;1873393;76;26174;-43
2022/12/12 13:27:14;;;;;;;1.35;1.00;;;;;;;;;;1871537;76;26754;-43
2022/12/12 13:29:49;;;;;;;1.30;1.00;;;;;;;;;;1868504;76;26711;-40
2022/12/12 13:32:18;;;;;;;1.00;1.00;;;;;;;;;;1872596;76;26645;-43
2022/12/12 13:34:47;;;;;;;1.17;1.17;;;;;;;;;;1868477;75;26639;-39
2022/12/12 13:37:15;;;;;;;2.65;1.10;;;;;;;;;;1868733;76;26602;-40
2022/12/12 13:39:43;;;;;;;0.95;0.95;;;;;;;;;;1867146;76;26187;-37
2022/12/12 13:42:11;;;;;;;1.10;1.10;;;;;;;;;;1871833;76;26249;-42
2022/12/12 13:44:40;;;;;;;0.85;0.85;;;;;;;;;;1873907;75;26151;-37
2022/12/12 13:47:11;;;;;;;3.62;1.22;;;;;;;;;;1870283;76;26207;-36
2022/12/12 13:49:40;;;;;;;1.60;0.93;;;;;;;;;;1817647;78;26305;-43
2022/12/12 13:52:09;;;;;;;1.72;1.00;;;;;;;;;;1818813;78;26385;-41
2022/12/12 13:54:43;;;;;;;0.82;0.82;;;;;;;;;;1810115;79;26224;-43
2022/12/12 13:57:12;;;;;;;2.98;0.85;;;;;;;;;;1808174;78;26223;-39
2022/12/12 13:59:46;;;;;;;4.05;0.98;;;;;;;;;;1816390;77;26681;-44
2022/12/12 14:02:31;;;;;;;3.00;1.00;;;;;;;;;;1780157;78;28254;-42
2022/12/12 14:05:06;;;;;;;1.00;1.00;;;;;;;;;;1801142;78;28156;-41
2022/12/12 14:07:34;;;;;;;0.80;0.80;;;;;;;;;;1810341;78;26229;-40
2022/12/12 14:10:02;;;;;;;4.22;0.90;;;;;;;;;;1816678;78;26706;-36
2022/12/12 14:12:32;;;;;;;0.88;0.88;;;;;;;;;;1803147;79;26744;-40
2022/12/12 14:15:06;;;;;;;1.75;0.82;;;;;;;;;;1809469;79;26231;-42
2022/12/12 14:17:38;;;;;;;3.35;0.90;;;;;;;;;;1814247;79;26776;-36
2022/12/12 14:20:05;;;;;;;1.40;0.88;;;;;;;;;;1810036;78;26696;-36
2022/12/12 14:22:37;;;;;;;1.82;1.00;;;;;;;;;;1821700;78;26204;-40
2022/12/12 14:25:09;;;;;;;1.57;0.80;;;;;;;;;;1816300;77;26677;-41
2022/12/12 14:27:50;;;;;;;1.07;0.80;;;;;;;;;;1817432;78;26244;-41
2022/12/12 14:30:21;;;;;;;2.25;0.90;;;;;;;;;;1817770;79;25660;-43
2022/12/12 14:32:56;;;;;;;1.72;0.90;;;;;;;;;;1819313;79;26166;-40
2022/12/12 14:35:43;;;;;;;0.75;0.75;;;;;;;;;;1808511;78;26520;-40
2022/12/12 14:38:17;;;;;;;2.25;0.80;;;;;;;;;;1811298;78;26303;-40
2022/12/12 14:40:46;;;;;;;0.80;0.80;;;;;;;;;;1814186;77;26279;-39
2022/12/12 14:43:18;;;;;;;0.80;0.80;;;;;;;;;;1816649;79;26609;-41
2022/12/12 14:45:52;;;;;;;1.95;0.78;;;;;;;;;;1810825;78;26206;-41
2022/12/12 14:48:24;;;;;;;0.60;0.60;;;;;;;;;;1827139;77;26258;-40
2022/12/12 14:50:55;;;;;;;0.80;0.80;;;;;;;;;;1862707;76;26266;-41
2022/12/12 14:53:24;;;;;;;2.08;0.80;;;;;;;;;;1864048;77;26155;-36
2022/12/12 14:55:53;;;;;;;0.78;0.70;;;;;;;;;;1863841;77;26203;-41
2022/12/12 14:58:21;;;;;;;0.70;0.70;;;;;;;;;;1856424;77;26773;-36
2022/12/12 15:00:50;;;;;;;0.80;0.75;;;;;;;;;;1860016;75;25653;-38
2022/12/12 15:03:19;;;;;;;0.90;0.90;;;;;;;;;;1865279;77;26710;-38
2022/12/12 15:05:46;;;;;;;2.95;1.07;;;;;;;;;;1865100;76;26599;-40
2022/12/12 15:08:15;;;;;;;2.00;0.80;;;;;;;;;;1862066;75;26214;-42
2022/12/12 15:10:42;;;;;;;2.58;0.98;;;;;;;;;;1856903;75;26163;-35